Time;durP1;ratioP1;P1;durP2;ratioP2;P2;SDS_P1;SDS_P2;PMS_P1;PMS_P2;Temp;Humidity;BMP_temperature;BMP_pressure;BME280_temperature;BME280_humidity;BME280_pressure;Samples;Min_cycle;Max_cycle;Signal;HPM_P1;HPM_P2
2023/05/24 00:01:01;;;;;;;4.28;2.58;;;16.70;99.90;;;;;;5051505;28;20678;-71
2023/05/24 00:03:29;;;;;;;2.42;2.22;;;16.70;99.90;;;;;;5051966;28;20211;-82
2023/05/24 00:05:56;;;;;;;2.65;2.35;;;16.70;99.90;;;;;;5049797;28;20663;-73
2023/05/24 00:08:23;;;;;;;3.35;2.10;;;16.70;99.90;;;;;;5051289;28;20214;-70
2023/05/24 00:10:50;;;;;;;4.68;3.47;;;16.70;99.90;;;;;;5051209;28;20231;-77
2023/05/24 00:13:18;;;;;;;3.17;2.80;;;16.60;99.90;;;;;;5051137;28;20257;-73
2023/05/24 00:15:45;;;;;;;3.05;2.20;;;16.60;99.90;;;;;;5050964;28;20210;-71
2023/05/24 00:18:12;;;;;;;3.63;2.83;;;16.50;99.90;;;;;;5051352;28;20230;-75
2023/05/24 00:20:39;;;;;;;2.85;2.22;;;16.60;99.90;;;;;;5051002;28;20245;-72
2023/05/24 00:23:06;;;;;;;2.92;2.35;;;16.60;99.90;;;;;;5051340;28;20242;-71
2023/05/24 00:25:33;;;;;;;3.78;3.47;;;16.60;99.90;;;;;;5051527;28;20218;-73
2023/05/24 00:28:00;;;;;;;2.40;2.20;;;16.60;99.90;;;;;;5051016;28;20241;-72
2023/05/24 00:30:28;;;;;;;2.30;2.10;;;16.70;99.90;;;;;;5050677;28;20290;-71
2023/05/24 00:32:55;;;;;;;5.88;2.80;;;16.70;99.90;;;;;;5051061;28;20253;-72
2023/05/24 00:35:22;;;;;;;2.88;2.30;;;16.80;99.90;;;;;;5050932;28;20249;-71
2023/05/24 00:37:49;;;;;;;4.18;3.60;;;16.80;99.90;;;;;;5050566;28;20265;-71
2023/05/24 00:40:16;;;;;;;4.53;2.72;;;16.80;99.90;;;;;;5050772;28;20211;-70
2023/05/24 00:42:43;;;;;;;2.75;2.35;;;16.80;99.90;;;;;;5050365;28;20234;-81
2023/05/24 00:45:10;;;;;;;3.10;2.67;;;16.80;99.90;;;;;;5050939;28;20238;-70
2023/05/24 00:47:39;;;;;;;3.67;2.42;;;16.80;99.90;;;;;;5050413;28;20238;-70
2023/05/24 00:50:08;;;;;;;2.78;2.50;;;16.80;99.90;;;;;;5050685;28;20643;-72
2023/05/24 00:52:36;;;;;;;2.80;2.60;;;16.80;99.90;;;;;;5050561;28;20697;-71
2023/05/24 00:55:03;;;;;;;4.07;2.72;;;16.80;99.90;;;;;;5051079;28;20253;-71
2023/05/24 00:57:30;;;;;;;2.95;2.72;;;16.80;99.90;;;;;;5050322;28;20265;-71
2023/05/24 00:59:58;;;;;;;3.30;2.55;;;16.80;99.90;;;;;;5050500;28;20206;-70
2023/05/24 01:02:25;;;;;;;2.45;2.22;;;16.70;99.90;;;;;;5050735;28;20250;-80
2023/05/24 01:04:55;;;;;;;3.33;3.03;;;16.70;99.90;;;;;;5049982;28;20249;-70
2023/05/24 01:07:26;;;;;;;3.22;2.97;;;16.60;99.90;;;;;;5050505;28;20210;-70
2023/05/24 01:10:05;;;;;;;3.30;3.00;;;16.60;99.90;;;;;;5050245;28;20241;-73
2023/05/24 01:12:39;;;;;;;3.45;2.60;;;16.60;99.90;;;;;;5050782;28;20324;-73
2023/05/24 01:15:12;;;;;;;2.55;2.20;;;16.70;99.90;;;;;;5050418;28;20242;-72
2023/05/24 01:17:50;;;;;;;3.55;2.63;;;16.70;99.90;;;;;;5049892;28;20284;-77
2023/05/24 01:20:21;;;;;;;2.63;2.42;;;16.80;99.90;;;;;;5050309;28;20658;-70
2023/05/24 01:23:26;;;;;;;2.78;2.58;;;16.80;99.90;;;;;;5050006;28;20203;-71
2023/05/24 01:26:07;;;;;;;4.72;3.13;;;16.80;99.90;;;;;;5049744;28;20687;-72
2023/05/24 01:28:36;;;;;;;3.53;2.90;;;16.80;99.90;;;;;;5050417;28;20234;-76
2023/05/24 01:31:04;;;;;;;3.92;3.15;;;16.80;99.90;;;;;;5050103;28;20238;-71
2023/05/24 01:33:32;;;;;;;2.97;2.67;;;16.80;99.90;;;;;;5050747;28;20308;-73
2023/05/24 01:35:59;;;;;;;4.63;3.10;;;16.80;99.90;;;;;;5050098;28;20713;-78
2023/05/24 01:38:26;;;;;;;2.70;2.50;;;16.80;99.90;;;;;;5050098;28;20265;-73
2023/05/24 01:40:59;;;;;;;3.63;3.22;;;16.80;99.90;;;;;;5049535;28;20296;-70
2023/05/24 01:43:33;;;;;;;4.30;3.38;;;16.80;99.90;;;;;;5050118;28;20214;-70
2023/05/24 01:46:06;;;;;;;9.63;3.05;;;16.80;99.90;;;;;;5050260;28;20247;-71
2023/05/24 01:48:42;;;;;;;3.53;3.22;;;16.80;99.90;;;;;;5050006;28;20709;-69
2023/05/24 01:51:10;;;;;;;3.45;3.15;;;16.70;99.90;;;;;;5049921;28;20250;-70
2023/05/24 01:53:45;;;;;;;3.53;3.15;;;16.80;99.90;;;;;;5049678;28;20202;-69
2023/05/24 01:56:13;;;;;;;3.88;3.47;;;16.80;99.90;;;;;;5049874;28;20731;-80
2023/05/24 01:58:43;;;;;;;4.13;2.83;;;16.70;99.90;;;;;;5049404;28;20844;-70
2023/05/24 02:01:13;;;;;;;3.83;3.15;;;16.70;99.90;;;;;;5050234;28;20242;-71
2023/05/24 02:03:40;;;;;;;3.47;3.17;;;16.80;99.90;;;;;;5049272;28;20722;-72
2023/05/24 02:06:09;;;;;;;3.47;2.85;;;16.80;99.90;;;;;;5036026;28;20246;-75
2023/05/24 02:08:36;;;;;;;3.28;2.97;;;16.80;99.90;;;;;;5051693;28;20741;-73
2023/05/24 02:11:03;;;;;;;4.15;3.78;;;16.80;99.90;;;;;;5053707;28;20210;-71
2023/05/24 02:13:30;;;;;;;4.43;3.28;;;16.90;99.90;;;;;;5040299;28;20235;-79
2023/05/24 02:15:57;;;;;;;3.33;3.03;;;16.90;99.90;;;;;;5053314;28;20254;-72
2023/05/24 02:18:25;;;;;;;6.45;3.47;;;17.00;99.90;;;;;;5053299;28;20784;-72
2023/05/24 02:20:52;;;;;;;4.90;3.40;;;16.90;99.90;;;;;;5053522;28;20293;-72
2023/05/24 02:23:19;;;;;;;3.88;3.58;;;17.00;99.90;;;;;;5053733;28;20238;-72
2023/05/24 02:25:46;;;;;;;5.88;3.38;;;16.90;99.90;;;;;;5053052;28;20207;-70
2023/05/24 02:28:13;;;;;;;3.75;3.45;;;16.90;99.90;;;;;;5053456;28;20238;-71
2023/05/24 02:30:43;;;;;;;4.03;3.63;;;17.00;99.90;;;;;;5052996;28;20633;-74
2023/05/24 02:33:10;;;;;;;4.18;3.78;;;16.90;99.90;;;;;;5053414;28;20211;-72
2023/05/24 02:35:40;;;;;;;4.32;3.92;;;16.90;99.90;;;;;;5039382;28;20241;-72
2023/05/24 02:38:08;;;;;;;6.22;4.07;;;16.80;99.90;;;;;;5053122;28;20262;-70
2023/05/24 02:40:35;;;;;;;4.88;4.10;;;16.80;99.90;;;;;;5050533;28;20686;-71
2023/05/24 02:43:02;;;;;;;5.65;3.55;;;16.80;99.90;;;;;;5053324;28;20249;-71
2023/05/24 02:45:29;;;;;;;3.83;3.53;;;16.80;99.90;;;;;;5053120;28;20217;-71
2023/05/24 02:47:56;;;;;;;5.53;3.25;;;16.70;99.90;;;;;;5052571;28;20670;-71
2023/05/24 02:50:23;;;;;;;4.47;3.50;;;16.70;99.90;;;;;;5053369;28;20241;-70
2023/05/24 02:52:51;;;;;;;4.93;3.70;;;16.80;99.90;;;;;;5052482;28;20246;-70
2023/05/24 02:55:18;;;;;;;4.32;3.28;;;16.80;99.90;;;;;;5052839;28;20250;-75
2023/05/24 02:57:46;;;;;;;4.28;3.55;;;16.80;99.90;;;;;;5052240;28;20735;-70
2023/05/24 03:00:14;;;;;;;3.20;2.83;;;16.90;99.90;;;;;;5066719;28;20640;-71
2023/05/24 03:02:41;;;;;;;4.57;3.35;;;16.90;99.90;;;;;;5052568;28;20250;-71
2023/05/24 03:05:09;;;;;;;4.35;3.80;;;16.90;99.90;;;;;;5052423;28;20238;-70
2023/05/24 03:07:35;;;;;;;4.97;3.67;;;16.90;99.90;;;;;;5052556;28;20658;-71
2023/05/24 03:10:04;;;;;;;4.63;3.25;;;16.90;99.90;;;;;;5052982;28;20242;-79
2023/05/24 03:12:31;;;;;;;6.70;4.07;;;16.90;99.90;;;;;;5052942;28;20642;-78
2023/05/24 03:14:58;;;;;;;4.68;3.53;;;16.80;99.90;;;;;;5052534;28;20234;-73
2023/05/24 03:17:25;;;;;;;3.72;3.40;;;16.80;99.90;;;;;;5052456;28;20242;-72
2023/05/24 03:19:52;;;;;;;5.20;3.58;;;16.80;99.90;;;;;;5052220;28;20269;-72
2023/05/24 03:22:19;;;;;;;5.63;3.65;;;16.70;99.90;;;;;;5052187;28;20213;-76
2023/05/24 03:24:47;;;;;;;6.75;3.60;;;16.70;99.90;;;;;;5051931;28;20681;-71
2023/05/24 03:27:15;;;;;;;5.35;4.25;;;16.70;99.90;;;;;;5052146;28;20689;-72
2023/05/24 03:29:42;;;;;;;4.28;3.50;;;16.70;99.90;;;;;;5051909;28;20234;-71
2023/05/24 03:32:09;;;;;;;7.82;3.72;;;16.70;99.90;;;;;;5052288;28;20253;-70
2023/05/24 03:34:36;;;;;;;4.28;3.72;;;16.70;99.90;;;;;;5051951;28;20273;-70
2023/05/24 03:37:03;;;;;;;5.85;3.90;;;16.70;99.90;;;;;;5052026;28;20276;-70
2023/05/24 03:39:30;;;;;;;4.05;3.65;;;16.70;99.90;;;;;;5052296;28;20270;-74
2023/05/24 03:41:57;;;;;;;7.60;4.10;;;16.70;99.90;;;;;;5051864;28;20238;-70
2023/05/24 03:44:26;;;;;;;5.70;4.38;;;16.70;99.90;;;;;;5051785;28;20249;-69
2023/05/24 03:46:53;;;;;;;5.57;4.10;;;16.70;99.90;;;;;;5051764;28;20233;-70
2023/05/24 03:49:20;;;;;;;8.82;4.10;;;16.70;99.90;;;;;;5051838;28;20299;-79
2023/05/24 03:51:47;;;;;;;7.20;3.67;;;16.70;99.90;;;;;;5051350;28;20238;-70
2023/05/24 03:54:13;;;;;;;5.43;3.92;;;16.70;99.90;;;;;;5051728;28;20626;-73
2023/05/24 03:56:40;;;;;;;4.90;3.85;;;16.60;99.90;;;;;;5051583;28;20238;-78
2023/05/24 03:59:07;;;;;;;4.05;3.75;;;16.60;99.90;;;;;;5051742;28;20660;-71
2023/05/24 04:01:36;;;;;;;5.25;3.72;;;16.60;99.90;;;;;;5051609;28;20202;-72
2023/05/24 04:04:03;;;;;;;5.15;4.28;;;16.70;99.90;;;;;;5051913;28;20225;-73
2023/05/24 04:06:30;;;;;;;4.05;3.60;;;16.70;99.90;;;;;;5051478;28;20238;-72
2023/05/24 04:08:58;;;;;;;9.27;3.65;;;16.70;99.90;;;;;;5051100;28;20242;-73
2023/05/24 04:11:27;;;;;;;3.42;3.13;;;16.60;99.90;;;;;;5051618;28;20238;-73
2023/05/24 04:13:55;;;;;;;5.43;4.88;;;16.60;99.90;;;;;;5051051;28;20207;-74
2023/05/24 04:16:24;;;;;;;2.92;2.70;;;16.70;99.90;;;;;;5051316;28;20206;-73
2023/05/24 04:18:53;;;;;;;3.90;3.50;;;16.70;99.90;;;;;;5050981;28;20227;-74
2023/05/24 04:21:20;;;;;;;5.05;4.45;;;16.80;99.90;;;;;;5051372;28;20235;-76
2023/05/24 04:23:47;;;;;;;4.50;3.55;;;16.70;99.90;;;;;;5055619;28;20693;-73
2023/05/24 04:26:14;;;;;;;4.95;3.83;;;16.60;99.90;;;;;;5060161;28;20234;-74
2023/05/24 04:28:41;;;;;;;5.30;4.00;;;16.70;99.90;;;;;;5050660;28;20203;-72
2023/05/24 04:31:09;;;;;;;4.72;4.07;;;16.70;99.90;;;;;;5050625;28;20268;-73
2023/05/24 04:33:38;;;;;;;5.30;4.70;;;16.70;99.90;;;;;;5050618;28;20675;-72
2023/05/24 04:36:07;;;;;;;4.80;4.35;;;16.70;99.90;;;;;;5051179;28;20217;-73
2023/05/24 04:38:35;;;;;;;4.82;4.38;;;16.70;99.90;;;;;;5050934;28;20237;-72
2023/05/24 04:41:02;;;;;;;3.90;3.50;;;16.70;99.90;;;;;;5051335;28;20207;-71
2023/05/24 04:43:29;;;;;;;5.43;4.22;;;16.70;99.90;;;;;;5051463;28;20740;-74
2023/05/24 04:45:56;;;;;;;4.30;3.90;;;16.70;99.90;;;;;;5050404;28;20246;-72
2023/05/24 04:48:23;;;;;;;4.68;4.20;;;16.70;99.90;;;;;;5050735;28;20249;-71
2023/05/24 04:50:51;;;;;;;4.03;3.72;;;16.80;99.90;;;;;;5050498;28;20587;-72
2023/05/24 04:53:19;;;;;;;5.40;4.90;;;16.80;99.90;;;;;;5050953;28;20209;-71
2023/05/24 04:55:47;;;;;;;4.85;4.35;;;16.80;99.90;;;;;;5050483;28;20203;-77
2023/05/24 04:58:14;;;;;;;5.28;4.78;;;16.80;99.90;;;;;;5042177;28;20737;-76
2023/05/24 05:00:42;;;;;;;5.88;5.13;;;16.80;99.90;;;;;;5049938;28;20203;-76
2023/05/24 05:03:09;;;;;;;5.45;4.93;;;16.70;99.90;;;;;;5050222;28;20287;-73
2023/05/24 05:05:36;;;;;;;6.28;5.68;;;16.70;99.90;;;;;;5049989;28;20695;-69
2023/05/24 05:08:03;;;;;;;6.40;5.20;;;16.80;99.90;;;;;;5050973;28;20234;-73
2023/05/24 05:10:31;;;;;;;6.38;5.78;;;16.80;99.90;;;;;;5050830;28;20207;-71
2023/05/24 05:12:58;;;;;;;6.53;4.82;;;17.00;99.90;;;;;;5039011;28;20225;-70
2023/05/24 05:15:25;;;;;;;5.85;5.35;;;17.00;99.90;;;;;;5050771;28;20230;-78
2023/05/24 05:17:52;;;;;;;4.90;4.45;;;17.00;99.90;;;;;;5049704;28;20698;-77
2023/05/24 05:20:19;;;;;;;7.03;5.28;;;17.00;99.90;;;;;;5050235;28;20211;-72
2023/05/24 05:22:46;;;;;;;7.13;6.13;;;17.00;99.90;;;;;;5049852;28;20210;-71
2023/05/24 05:25:13;;;;;;;6.22;5.35;;;16.90;99.90;;;;;;5046653;28;20237;-73
2023/05/24 05:27:42;;;;;;;5.93;5.32;;;16.90;99.90;;;;;;5046279;28;20231;-72
2023/05/24 05:30:10;;;;;;;7.60;4.95;;;17.10;99.90;;;;;;5043550;28;20242;-72
2023/05/24 05:32:36;;;;;;;7.28;6.57;;;17.20;99.90;;;;;;5039182;28;20214;-73
2023/05/24 05:35:04;;;;;;;6.60;6.00;;;17.30;99.90;;;;;;5041488;28;20260;-70
2023/05/24 05:37:31;;;;;;;8.15;7.35;;;17.40;99.90;;;;;;5050574;28;20613;-74
2023/05/24 05:39:58;;;;;;;9.10;6.60;;;17.30;99.90;;;;;;5049554;28;20238;-72
2023/05/24 05:42:25;;;;;;;6.22;5.63;;;17.30;99.90;;;;;;5050114;28;20640;-73
2023/05/24 05:44:53;;;;;;;6.82;6.13;;;17.40;99.90;;;;;;5053744;28;20273;-72
2023/05/24 05:47:20;;;;;;;6.63;5.93;;;17.30;99.90;;;;;;5053392;28;20689;-73
2023/05/24 05:49:47;;;;;;;8.05;6.13;;;17.30;99.90;;;;;;5053064;28;20207;-72
2023/05/24 05:52:14;;;;;;;6.13;5.43;;;17.20;99.90;;;;;;5048196;28;20246;-74
2023/05/24 05:54:42;;;;;;;7.05;6.35;;;17.30;99.90;;;;;;5052116;28;20635;-86
2023/05/24 05:57:10;;;;;;;5.88;5.30;;;17.30;99.90;;;;;;5055312;28;20252;-72
2023/05/24 05:59:37;;;;;;;6.07;5.07;;;17.40;99.90;;;;;;5055768;28;20238;-73
2023/05/24 06:02:07;;;;;;;7.32;5.90;;;17.30;99.90;;;;;;5053769;28;20268;-75
2023/05/24 06:04:34;;;;;;;7.25;6.05;;;17.30;99.90;;;;;;5053451;28;20206;-72
2023/05/24 06:07:01;;;;;;;6.00;5.45;;;17.30;99.90;;;;;;5044075;28;20214;-73
2023/05/24 06:09:28;;;;;;;7.88;5.80;;;17.30;99.90;;;;;;5053132;28;20293;-72
2023/05/24 06:11:55;;;;;;;10.40;9.38;;;17.40;99.90;;;;;;5053235;28;20315;-74
2023/05/24 06:14:23;;;;;;;6.20;5.60;;;17.40;99.90;;;;;;5053748;28;20300;-74
2023/05/24 06:16:51;;;;;;;7.05;5.78;;;17.30;99.90;;;;;;5048874;28;20207;-73
2023/05/24 06:19:19;;;;;;;8.68;5.78;;;17.30;99.90;;;;;;5053313;28;20300;-74
2023/05/24 06:21:47;;;;;;;9.00;6.50;;;17.40;99.90;;;;;;5046115;28;20223;-73
2023/05/24 06:24:14;;;;;;;7.70;5.32;;;17.30;99.90;;;;;;5053206;28;20215;-72
2023/05/24 06:26:41;;;;;;;5.97;5.28;;;17.50;99.90;;;;;;5053033;28;20283;-72
2023/05/24 06:29:08;;;;;;;7.65;6.10;;;17.40;99.90;;;;;;5053029;28;20588;-72
2023/05/24 06:31:35;;;;;;;6.43;5.70;;;17.50;99.90;;;;;;5053047;28;20241;-75
2023/05/24 06:34:02;;;;;;;6.03;5.43;;;17.60;99.90;;;;;;5053684;28;20296;-74
2023/05/24 06:36:32;;;;;;;6.82;4.82;;;17.50;99.90;;;;;;5052552;28;20268;-74
2023/05/24 06:39:00;;;;;;;7.03;5.43;;;17.60;99.90;;;;;;5051406;28;20234;-80
2023/05/24 06:41:27;;;;;;;7.57;5.75;;;17.60;99.90;;;;;;5053139;28;20207;-81
2023/05/24 06:43:54;;;;;;;7.20;5.63;;;17.70;99.90;;;;;;5044448;28;20258;-79
2023/05/24 06:46:21;;;;;;;5.95;5.35;;;17.70;99.90;;;;;;5041299;28;20592;-81
2023/05/24 06:48:48;;;;;;;6.00;5.40;;;17.60;99.90;;;;;;5050854;28;20222;-78
2023/05/24 06:51:15;;;;;;;6.55;5.85;;;17.60;99.90;;;;;;5050357;28;20238;-78
2023/05/24 06:53:43;;;;;;;7.05;6.35;;;17.70;99.90;;;;;;5052403;28;20300;-76
2023/05/24 06:56:10;;;;;;;7.88;5.80;;;17.70;99.90;;;;;;5053273;28;20235;-80
2023/05/24 06:58:37;;;;;;;7.00;5.93;;;17.70;99.90;;;;;;5052558;28;20683;-75
2023/05/24 07:01:04;;;;;;;7.57;6.43;;;17.80;99.90;;;;;;5052571;28;20211;-81
2023/05/24 07:03:31;;;;;;;6.10;5.50;;;17.80;99.90;;;;;;5053522;28;20265;-82
2023/05/24 07:05:58;;;;;;;7.18;6.18;;;17.80;99.90;;;;;;5052968;28;20250;-82
2023/05/24 07:08:26;;;;;;;7.50;6.72;;;17.80;99.90;;;;;;5053021;28;20242;-80
2023/05/24 07:10:54;;;;;;;8.27;6.32;;;17.80;99.90;;;;;;5051643;28;20253;-79
2023/05/24 07:13:21;;;;;;;7.82;6.70;;;17.90;99.90;;;;;;5052538;28;20238;-83
2023/05/24 07:15:49;;;;;;;10.32;7.25;;;17.80;99.90;;;;;;5052140;28;20231;-84
2023/05/24 07:18:16;;;;;;;8.57;6.85;;;17.90;99.90;;;;;;5052684;28;20217;-79
2023/05/24 07:20:43;;;;;;;5.53;5.03;;;17.90;99.90;;;;;;5052071;28;20726;-78
2023/05/24 07:23:10;;;;;;;10.70;6.70;;;17.90;99.90;;;;;;5050642;28;20245;-82
2023/05/24 07:25:37;;;;;;;6.97;6.32;;;17.90;99.90;;;;;;5040799;28;20662;-75
2023/05/24 07:28:06;;;;;;;6.57;5.82;;;17.90;99.90;;;;;;5047951;28;20238;-74
2023/05/24 07:30:33;;;;;;;7.20;6.30;;;18.10;99.90;;;;;;5052131;28;20230;-72
2023/05/24 07:33:02;;;;;;;7.70;6.85;;;18.30;99.90;;;;;;5046964;28;20757;-82
2023/05/24 07:35:29;;;;;;;7.45;6.65;;;18.60;99.90;;;;;;5046582;28;20202;-82
2023/05/24 07:37:57;;;;;;;7.35;6.65;;;18.60;99.90;;;;;;5051971;28;20214;-76
2023/05/24 07:40:23;;;;;;;7.25;6.53;;;18.70;99.90;;;;;;5051959;28;20698;-76
2023/05/24 07:42:50;;;;;;;11.52;7.22;;;19.20;99.90;;;;;;5051072;28;20231;-72
2023/05/24 07:45:19;;;;;;;7.07;6.40;;;19.50;99.90;;;;;;5050089;28;20234;-78
2023/05/24 07:47:46;;;;;;;6.07;5.53;;;19.70;99.90;;;;;;5051581;28;20344;-79
2023/05/24 07:50:13;;;;;;;7.60;6.93;;;19.60;99.90;;;;;;5044112;28;20235;-82
2023/05/24 07:52:40;;;;;;;8.07;7.30;;;19.30;99.90;;;;;;5046432;28;20666;-80
2023/05/24 07:55:07;;;;;;;8.43;6.38;;;19.20;99.90;;;;;;5051674;28;20280;-78
2023/05/24 07:57:34;;;;;;;8.02;7.20;;;19.20;99.90;;;;;;5051392;28;20292;-76
2023/05/24 08:00:06;;;;;;;7.47;6.25;;;19.30;99.90;;;;;;5049489;28;20732;-77
2023/05/24 08:02:34;;;;;;;7.88;6.85;;;19.30;99.90;;;;;;5046639;28;20298;-72
2023/05/24 08:05:03;;;;;;;6.70;6.00;;;19.30;99.90;;;;;;5045890;28;20239;-75
2023/05/24 08:07:30;;;;;;;7.80;6.32;;;19.20;99.90;;;;;;5043793;28;20258;-71
2023/05/24 08:09:57;;;;;;;9.30;6.80;;;19.10;99.90;;;;;;5040493;28;20690;-80
2023/05/24 08:12:25;;;;;;;7.43;6.72;;;19.10;99.90;;;;;;5042326;28;20230;-76
2023/05/24 08:14:52;;;;;;;7.45;6.45;;;19.10;99.90;;;;;;5039932;28;20662;-77
2023/05/24 08:17:19;;;;;;;7.90;7.07;;;19.30;99.90;;;;;;5051150;28;20238;-78
2023/05/24 08:19:47;;;;;;;7.85;6.88;;;19.40;99.90;;;;;;5050299;28;20670;-76
2023/05/24 08:22:15;;;;;;;8.45;7.32;;;19.60;99.90;;;;;;5050901;28;20764;-76
2023/05/24 08:24:41;;;;;;;7.07;6.20;;;19.70;99.90;;;;;;5050722;28;20595;-75
2023/05/24 08:27:08;;;;;;;7.85;6.78;;;19.60;99.90;;;;;;5050589;28;20238;-79
2023/05/24 08:29:35;;;;;;;9.98;6.78;;;19.60;99.90;;;;;;5050855;28;20265;-77
2023/05/24 08:32:02;;;;;;;7.75;6.95;;;19.50;99.90;;;;;;5050022;28;20239;-78
2023/05/24 08:34:29;;;;;;;10.07;7.72;;;19.60;99.90;;;;;;5039674;28;20249;-81
2023/05/24 08:36:58;;;;;;;9.77;7.53;;;19.50;99.90;;;;;;5050762;28;20594;-80
2023/05/24 08:39:24;;;;;;;8.63;7.03;;;19.70;99.90;;;;;;5050368;28;20714;-77
2023/05/24 08:41:52;;;;;;;9.52;7.05;;;19.80;99.90;;;;;;5049741;28;20291;-76
2023/05/24 08:44:20;;;;;;;11.80;7.05;;;19.70;99.90;;;;;;5051022;28;20260;-79
2023/05/24 08:46:47;;;;;;;8.20;7.45;;;19.30;99.90;;;;;;5050669;28;20203;-83
2023/05/24 08:49:14;;;;;;;9.68;8.68;;;19.20;99.90;;;;;;5049853;28;20679;-79
2023/05/24 08:51:41;;;;;;;8.80;7.30;;;19.00;99.90;;;;;;5049784;28;20238;-78
2023/05/24 08:54:12;;;;;;;7.55;6.75;;;19.00;99.90;;;;;;5050336;28;20250;-78
2023/05/24 08:56:40;;;;;;;9.27;7.03;;;19.10;99.90;;;;;;5047121;28;20203;-77
2023/05/24 08:59:09;;;;;;;9.10;8.25;;;19.10;99.90;;;;;;5045431;28;20252;-78
2023/05/24 09:01:39;;;;;;;9.38;7.20;;;19.10;99.90;;;;;;5039367;28;20253;-76
2023/05/24 09:04:07;;;;;;;10.93;8.15;;;19.10;99.90;;;;;;5050363;28;20889;-80
2023/05/24 09:06:34;;;;;;;13.65;8.20;;;19.20;99.90;;;;;;5047088;28;20208;-74
2023/05/24 09:09:03;;;;;;;8.18;7.45;;;19.10;99.90;;;;;;5051070;28;20286;-75
2023/05/24 09:11:32;;;;;;;8.50;7.28;;;19.10;99.90;;;;;;5049974;28;20213;-77
2023/05/24 09:14:01;;;;;;;12.52;7.78;;;19.20;99.90;;;;;;5050407;28;20203;-79
2023/05/24 09:16:28;;;;;;;11.13;7.43;;;19.30;99.90;;;;;;5050574;28;20210;-78
2023/05/24 09:18:55;;;;;;;9.10;8.20;;;19.50;99.90;;;;;;5037742;28;21205;-76
2023/05/24 09:21:23;;;;;;;9.60;6.95;;;19.80;99.90;;;;;;5050229;28;20273;-77
2023/05/24 09:23:51;;;;;;;9.00;7.88;;;20.20;99.90;;;;;;5049704;28;20590;-77
2023/05/24 09:26:18;;;;;;;9.07;7.70;;;20.30;99.90;;;;;;5048180;28;20242;-76
2023/05/24 09:28:48;;;;;;;7.90;7.20;;;20.20;99.90;;;;;;5048448;28;20237;-75
2023/05/24 09:31:15;;;;;;;13.25;9.82;;;20.10;99.90;;;;;;5049533;28;20206;-77
2023/05/24 09:33:42;;;;;;;7.72;6.85;;;19.80;99.90;;;;;;5049184;28;20217;-77
2023/05/24 09:36:10;;;;;;;8.32;7.53;;;19.70;99.90;;;;;;5041812;28;20678;-78
2023/05/24 09:38:37;;;;;;;10.32;9.23;;;19.60;99.90;;;;;;5044285;28;20264;-77
2023/05/24 09:41:06;;;;;;;9.13;8.23;;;19.50;99.90;;;;;;5049189;28;20273;-76
2023/05/24 09:43:35;;;;;;;13.32;8.68;;;19.50;99.90;;;;;;5049321;28;20303;-78
2023/05/24 09:46:04;;;;;;;7.43;6.72;;;19.50;99.90;;;;;;5048393;28;20306;-76
2023/05/24 09:48:31;;;;;;;8.65;7.75;;;19.70;99.90;;;;;;5048637;28;20304;-86
2023/05/24 09:51:03;;;;;;;8.07;7.28;;;19.70;99.90;;;;;;5045448;28;20210;-79
2023/05/24 09:53:32;;;;;;;9.20;8.30;;;20.00;99.90;;;;;;5050821;28;20198;-77
2023/05/24 09:56:00;;;;;;;7.50;6.78;;;20.40;99.90;;;;;;5050370;28;20217;-88
2023/05/24 09:58:31;;;;;;;10.80;8.13;;;20.60;99.90;;;;;;5043757;28;20451;-75
2023/05/24 10:01:06;;;;;;;9.63;8.20;;;20.50;99.90;;;;;;5041831;28;20976;-78
2023/05/24 10:03:33;;;;;;;7.63;6.93;;;20.50;99.90;;;;;;5042642;28;20210;-76
2023/05/24 10:06:00;;;;;;;7.63;6.93;;;20.40;99.90;;;;;;5053131;28;20206;-77
2023/05/24 10:08:28;;;;;;;7.95;6.65;;;20.40;99.90;;;;;;5049509;28;20203;-77
2023/05/24 10:10:56;;;;;;;7.50;6.88;;;20.50;99.90;;;;;;5049555;28;20213;-82
2023/05/24 10:13:23;;;;;;;7.90;7.20;;;20.60;99.90;;;;;;5049593;28;20206;-82
2023/05/24 10:15:50;;;;;;;7.45;6.63;;;20.40;99.90;;;;;;5048616;28;20237;-75
2023/05/24 10:18:19;;;;;;;8.90;6.35;;;20.20;99.90;;;;;;5041448;28;20226;-77
2023/05/24 10:20:46;;;;;;;8.80;7.25;;;20.00;99.90;;;;;;5048354;28;20234;-74
2023/05/24 10:23:19;;;;;;;7.28;6.55;;;19.90;99.90;;;;;;5042164;28;20680;-79
2023/05/24 10:25:52;;;;;;;6.88;6.22;;;19.90;99.90;;;;;;5041208;28;20282;-79
2023/05/24 10:28:21;;;;;;;7.90;7.13;;;20.10;99.90;;;;;;5046641;28;20324;-79
2023/05/24 10:30:56;;;;;;;8.18;6.93;;;20.30;99.90;;;;;;5045041;28;20211;-77
2023/05/24 10:33:25;;;;;;;7.60;6.75;;;20.30;99.90;;;;;;5052159;28;20618;-74
2023/05/24 10:35:53;;;;;;;8.65;7.75;;;20.30;99.90;;;;;;5052367;28;20759;-74
2023/05/24 10:38:23;;;;;;;7.32;6.63;;;20.40;99.90;;;;;;5051085;28;20238;-75
2023/05/24 10:40:50;;;;;;;12.70;7.30;;;20.60;99.90;;;;;;5052204;28;20702;-75
2023/05/24 10:43:18;;;;;;;7.10;5.82;;;20.70;99.90;;;;;;5052933;28;20207;-76
2023/05/24 10:45:49;;;;;;;8.73;7.78;;;20.70;99.90;;;;;;5052549;28;20230;-77
2023/05/24 10:48:37;;;;;;;7.90;7.00;;;20.60;99.90;;;;;;5047269;28;20253;-76
2023/05/24 10:51:37;;;;;;;6.72;6.03;;;20.70;99.90;;;;;;5043777;28;20214;-73
2023/05/24 10:54:25;;;;;;;7.80;6.78;;;20.80;99.90;;;;;;5048688;28;20214;-79
2023/05/24 10:56:53;;;;;;;8.25;7.35;;;21.10;99.90;;;;;;5044127;28;20241;-73
2023/05/24 10:59:33;;;;;;;10.25;8.43;;;21.40;99.90;;;;;;5052049;28;20238;-76
2023/05/24 11:02:01;;;;;;;8.85;8.05;;;21.50;99.90;;;;;;5052460;28;20234;-76
2023/05/24 11:04:33;;;;;;;8.65;7.85;;;21.60;99.90;;;;;;5053231;28;20301;-76
2023/05/24 11:07:05;;;;;;;11.20;8.90;;;21.70;99.90;;;;;;5047460;28;20211;-75
2023/05/24 11:09:33;;;;;;;7.93;7.10;;;21.70;99.90;;;;;;5046656;28;20281;-75
2023/05/24 11:12:06;;;;;;;8.00;6.90;;;21.50;99.90;;;;;;5052557;28;20215;-74
2023/05/24 11:14:36;;;;;;;8.90;8.10;;;21.20;99.90;;;;;;5052918;28;20226;-76
2023/05/24 11:17:04;;;;;;;10.70;7.88;;;21.00;99.90;;;;;;5050274;28;20311;-80
2023/05/24 11:19:34;;;;;;;7.60;6.68;;;21.20;99.90;;;;;;5053009;28;20286;-73
2023/05/24 11:22:03;;;;;;;11.55;7.95;;;21.40;99.90;;;;;;5052141;28;20278;-79
2023/05/24 11:24:31;;;;;;;8.68;7.88;;;21.20;99.90;;;;;;5043300;28;20264;-79
2023/05/24 11:27:00;;;;;;;8.13;7.30;;;21.10;99.90;;;;;;5048857;28;20206;-74
2023/05/24 11:29:28;;;;;;;8.07;7.28;;;21.10;99.90;;;;;;5052442;28;20741;-79
2023/05/24 11:31:57;;;;;;;8.88;8.07;;;21.30;99.90;;;;;;5049686;28;20207;-76
2023/05/24 11:34:26;;;;;;;9.43;7.95;;;21.20;99.90;;;;;;5052268;28;20222;-81
2023/05/24 11:36:54;;;;;;;9.70;7.63;;;21.00;99.90;;;;;;5038340;28;20218;-76
2023/05/24 11:39:22;;;;;;;8.85;7.85;;;20.80;99.90;;;;;;5052234;28;20639;-72
2023/05/24 11:41:49;;;;;;;8.70;7.80;;;20.70;99.90;;;;;;5050831;28;20238;-78
2023/05/24 11:44:19;;;;;;;11.13;8.30;;;20.70;99.90;;;;;;5046904;28;20210;-79
2023/05/24 11:46:46;;;;;;;12.15;7.85;;;20.90;99.90;;;;;;5049453;28;20210;-76
2023/05/24 11:49:14;;;;;;;8.57;7.70;;;21.20;99.90;;;;;;5049376;28;20219;-74
2023/05/24 11:51:41;;;;;;;8.43;7.55;;;21.20;99.90;;;;;;5051516;28;20203;-72
2023/05/24 11:54:10;;;;;;;11.70;9.13;;;21.50;99.90;;;;;;5050336;28;20304;-73
2023/05/24 11:56:37;;;;;;;9.65;7.95;;;21.70;99.90;;;;;;5045051;28;20228;-71
2023/05/24 11:59:11;;;;;;;11.77;8.45;;;21.70;99.90;;;;;;5048342;28;20245;-81
2023/05/24 12:01:39;;;;;;;11.15;9.10;;;21.50;99.90;;;;;;5048871;28;20230;-82
2023/05/24 12:04:08;;;;;;;9.65;8.52;;;21.20;99.90;;;;;;5051654;28;20601;-77
2023/05/24 12:06:36;;;;;;;10.25;8.70;;;20.80;99.90;;;;;;5050661;28;20207;-73
2023/05/24 12:09:07;;;;;;;11.18;8.65;;;20.70;99.90;;;;;;5051058;28;20238;-69
2023/05/24 12:11:38;;;;;;;10.15;9.15;;;20.70;99.90;;;;;;5051433;28;20202;-69
2023/05/24 12:14:05;;;;;;;9.75;8.85;;;20.80;99.90;;;;;;5051345;28;20298;-78
2023/05/24 12:16:32;;;;;;;9.68;8.68;;;21.00;99.90;;;;;;5051975;28;20239;-74
2023/05/24 12:18:59;;;;;;;9.40;8.48;;;21.20;99.90;;;;;;5060426;28;20261;-71
2023/05/24 12:21:31;;;;;;;10.05;8.77;;;21.10;99.90;;;;;;5051286;28;20266;-76
2023/05/24 12:24:08;;;;;;;12.05;9.65;;;21.20;99.90;;;;;;5050445;28;20242;-77
2023/05/24 12:26:37;;;;;;;10.88;8.32;;;21.20;99.90;;;;;;5051390;28;20241;-69
2023/05/24 12:29:05;;;;;;;10.18;8.45;;;21.40;99.90;;;;;;5051234;28;20608;-73
2023/05/24 12:31:36;;;;;;;11.25;9.80;;;21.30;99.90;;;;;;5051719;28;20600;-75
2023/05/24 12:34:05;;;;;;;10.95;9.25;;;21.20;99.90;;;;;;5049630;28;20203;-70
2023/05/24 12:36:33;;;;;;;9.80;8.85;;;21.30;99.90;;;;;;5049444;28;20314;-74
2023/05/24 12:39:00;;;;;;;11.25;10.25;;;21.20;99.90;;;;;;5050604;28;20211;-73
2023/05/24 12:41:31;;;;;;;9.45;8.52;;;21.10;99.90;;;;;;5050979;28;20235;-79
2023/05/24 12:43:59;;;;;;;9.43;8.52;;;20.90;99.90;;;;;;5045282;28;20209;-76
2023/05/24 12:46:26;;;;;;;13.27;8.48;;;20.80;99.90;;;;;;5042944;28;20290;-79
2023/05/24 12:48:54;;;;;;;11.27;8.93;;;20.70;99.90;;;;;;5046570;28;20249;-80
2023/05/24 12:51:21;;;;;;;8.80;7.90;;;20.80;99.90;;;;;;5050300;28;20216;-75